sensor_id;sensor_type;location;lat;lon;timestamp;temperature;humidity
66190;DHT22;52992;52.084;5.412;2023-04-06T00:00:57;8.10;49.70
66190;DHT22;52992;52.084;5.412;2023-04-06T00:03:25;8.10;49.60
66190;DHT22;52992;52.084;5.412;2023-04-06T00:05:52;8.10;49.60
66190;DHT22;52992;52.084;5.412;2023-04-06T00:08:19;8.10;49.60
66190;DHT22;52992;52.084;5.412;2023-04-06T00:10:48;8.10;49.70
66190;DHT22;52992;52.084;5.412;2023-04-06T00:13:15;8.10;49.80
66190;DHT22;52992;52.084;5.412;2023-04-06T00:15:42;8.10;49.90
66190;DHT22;52992;52.084;5.412;2023-04-06T00:18:09;8.00;49.70
66190;DHT22;52992;52.084;5.412;2023-04-06T00:20:36;8.00;49.50
66190;DHT22;52992;52.084;5.412;2023-04-06T00:23:03;7.90;49.20
66190;DHT22;52992;52.084;5.412;2023-04-06T00:25:30;7.90;49.10
66190;DHT22;52992;52.084;5.412;2023-04-06T00:27:57;7.80;49.20
66190;DHT22;52992;52.084;5.412;2023-04-06T00:30:25;7.80;49.40
66190;DHT22;52992;52.084;5.412;2023-04-06T00:32:52;7.80;49.50
66190;DHT22;52992;52.084;5.412;2023-04-06T00:35:19;7.80;49.70
66190;DHT22;52992;52.084;5.412;2023-04-06T00:37:47;7.70;49.80
66190;DHT22;52992;52.084;5.412;2023-04-06T00:40:15;7.70;49.90
66190;DHT22;52992;52.084;5.412;2023-04-06T00:42:42;7.70;49.80
66190;DHT22;52992;52.084;5.412;2023-04-06T00:45:10;7.70;49.60
66190;DHT22;52992;52.084;5.412;2023-04-06T00:47:38;7.70;49.50
66190;DHT22;52992;52.084;5.412;2023-04-06T00:50:06;7.70;49.60
66190;DHT22;52992;52.084;5.412;2023-04-06T00:52:33;7.70;49.70
66190;DHT22;52992;52.084;5.412;2023-04-06T00:55:02;7.70;49.70
66190;DHT22;52992;52.084;5.412;2023-04-06T00:57:31;7.60;49.80
66190;DHT22;52992;52.084;5.412;2023-04-06T00:59:58;7.60;49.90
66190;DHT22;52992;52.084;5.412;2023-04-06T01:02:26;7.60;49.90
66190;DHT22;52992;52.084;5.412;2023-04-06T01:04:53;7.70;50.10
66190;DHT22;52992;52.084;5.412;2023-04-06T01:07:30;7.60;50.00
66190;DHT22;52992;52.084;5.412;2023-04-06T01:10:08;7.70;50.10
66190;DHT22;52992;52.084;5.412;2023-04-06T01:12:36;7.70;50.10
66190;DHT22;52992;52.084;5.412;2023-04-06T01:15:12;7.70;50.10
66190;DHT22;52992;52.084;5.412;2023-04-06T01:17:43;7.80;49.80
66190;DHT22;52992;52.084;5.412;2023-04-06T01:20:14;7.80;49.40
66190;DHT22;52992;52.084;5.412;2023-04-06T01:22:41;7.80;49.30
66190;DHT22;52992;52.084;5.412;2023-04-06T01:25:09;7.80;49.30
66190;DHT22;52992;52.084;5.412;2023-04-06T01:27:46;7.90;49.50
66190;DHT22;52992;52.084;5.412;2023-04-06T01:30:33;7.90;49.50
66190;DHT22;52992;52.084;5.412;2023-04-06T01:33:07;8.00;49.40
66190;DHT22;52992;52.084;5.412;2023-04-06T01:35:44;8.00;49.50
66190;DHT22;52992;52.084;5.412;2023-04-06T01:38:15;8.10;49.60
66190;DHT22;52992;52.084;5.412;2023-04-06T01:40:43;8.10;49.60
66190;DHT22;52992;52.084;5.412;2023-04-06T01:43:10;8.20;49.60
66190;DHT22;52992;52.084;5.412;2023-04-06T01:45:57;8.20;49.70
66190;DHT22;52992;52.084;5.412;2023-04-06T01:48:30;8.20;49.50
66190;DHT22;52992;52.084;5.412;2023-04-06T01:50:58;8.20;49.30
66190;DHT22;52992;52.084;5.412;2023-04-06T01:53:33;8.20;49.20
66190;DHT22;52992;52.084;5.412;2023-04-06T01:56:05;8.20;49.20
66190;DHT22;52992;52.084;5.412;2023-04-06T01:58:36;8.30;49.40
66190;DHT22;52992;52.084;5.412;2023-04-06T02:01:04;8.30;49.60
66190;DHT22;52992;52.084;5.412;2023-04-06T02:03:43;8.40;49.60
66190;DHT22;52992;52.084;5.412;2023-04-06T02:06:11;8.40;49.60
66190;DHT22;52992;52.084;5.412;2023-04-06T02:08:39;8.40;49.70
66190;DHT22;52992;52.084;5.412;2023-04-06T02:11:07;8.40;49.70
66190;DHT22;52992;52.084;5.412;2023-04-06T02:13:40;8.40;49.80
66190;DHT22;52992;52.084;5.412;2023-04-06T02:16:08;8.50;50.00
66190;DHT22;52992;52.084;5.412;2023-04-06T02:18:35;8.50;49.90
66190;DHT22;52992;52.084;5.412;2023-04-06T02:21:02;8.50;49.90
66190;DHT22;52992;52.084;5.412;2023-04-06T02:23:29;8.50;50.00
66190;DHT22;52992;52.084;5.412;2023-04-06T02:25:56;8.60;49.90
66190;DHT22;52992;52.084;5.412;2023-04-06T02:28:23;8.60;49.70
66190;DHT22;52992;52.084;5.412;2023-04-06T02:30:50;8.60;49.60
66190;DHT22;52992;52.084;5.412;2023-04-06T02:33:19;8.60;49.40
66190;DHT22;52992;52.084;5.412;2023-04-06T02:35:47;8.60;49.50
66190;DHT22;52992;52.084;5.412;2023-04-06T02:38:14;8.60;49.30
66190;DHT22;52992;52.084;5.412;2023-04-06T02:40:41;8.60;49.20
66190;DHT22;52992;52.084;5.412;2023-04-06T02:43:28;8.60;49.10
66190;DHT22;52992;52.084;5.412;2023-04-06T02:46:03;8.60;49.00
66190;DHT22;52992;52.084;5.412;2023-04-06T02:48:34;8.60;48.80
66190;DHT22;52992;52.084;5.412;2023-04-06T02:51:03;8.60;48.70
66190;DHT22;52992;52.084;5.412;2023-04-06T02:53:31;8.60;48.70
66190;DHT22;52992;52.084;5.412;2023-04-06T02:55:58;8.60;48.80
66190;DHT22;52992;52.084;5.412;2023-04-06T02:58:33;8.60;48.90
66190;DHT22;52992;52.084;5.412;2023-04-06T03:00:59;8.70;49.10
66190;DHT22;52992;52.084;5.412;2023-04-06T03:03:27;8.60;49.10
66190;DHT22;52992;52.084;5.412;2023-04-06T03:05:55;8.60;49.20
66190;DHT22;52992;52.084;5.412;2023-04-06T03:08:28;8.70;49.50
66190;DHT22;52992;52.084;5.412;2023-04-06T03:10:55;8.80;49.70
66190;DHT22;52992;52.084;5.412;2023-04-06T03:13:29;8.70;49.70
66190;DHT22;52992;52.084;5.412;2023-04-06T03:15:57;8.70;49.70
66190;DHT22;52992;52.084;5.412;2023-04-06T03:18:26;8.80;49.80
66190;DHT22;52992;52.084;5.412;2023-04-06T03:20:55;8.80;50.00
66190;DHT22;52992;52.084;5.412;2023-04-06T03:23:27;8.80;50.00
66190;DHT22;52992;52.084;5.412;2023-04-06T03:25:58;8.90;50.20
66190;DHT22;52992;52.084;5.412;2023-04-06T03:28:25;8.90;50.10
66190;DHT22;52992;52.084;5.412;2023-04-06T03:30:58;8.80;50.00
66190;DHT22;52992;52.084;5.412;2023-04-06T03:33:40;8.90;50.00
66190;DHT22;52992;52.084;5.412;2023-04-06T03:36:12;8.90;49.90
66190;DHT22;52992;52.084;5.412;2023-04-06T03:38:41;8.90;49.80
66190;DHT22;52992;52.084;5.412;2023-04-06T03:41:11;8.90;49.70
66190;DHT22;52992;52.084;5.412;2023-04-06T03:43:42;8.90;49.70
66190;DHT22;52992;52.084;5.412;2023-04-06T03:46:09;8.90;49.80
66190;DHT22;52992;52.084;5.412;2023-04-06T03:48:36;8.80;49.70
66190;DHT22;52992;52.084;5.412;2023-04-06T03:51:05;8.80;49.70
66190;DHT22;52992;52.084;5.412;2023-04-06T03:53:32;8.80;49.80
66190;DHT22;52992;52.084;5.412;2023-04-06T03:55:59;8.80;49.90
66190;DHT22;52992;52.084;5.412;2023-04-06T03:58:30;8.90;50.20
66190;DHT22;52992;52.084;5.412;2023-04-06T04:00:57;8.80;50.30
66190;DHT22;52992;52.084;5.412;2023-04-06T04:03:24;8.80;50.50
66190;DHT22;52992;52.084;5.412;2023-04-06T04:05:54;8.80;50.80
66190;DHT22;52992;52.084;5.412;2023-04-06T04:08:24;8.80;50.90
66190;DHT22;52992;52.084;5.412;2023-04-06T04:10:52;8.80;51.20
66190;DHT22;52992;52.084;5.412;2023-04-06T04:13:19;8.80;51.30
66190;DHT22;52992;52.084;5.412;2023-04-06T04:15:49;8.80;51.40
66190;DHT22;52992;52.084;5.412;2023-04-06T04:18:16;8.80;51.50
66190;DHT22;52992;52.084;5.412;2023-04-06T04:20:43;8.80;51.60
66190;DHT22;52992;52.084;5.412;2023-04-06T04:23:11;8.80;51.50
66190;DHT22;52992;52.084;5.412;2023-04-06T04:25:38;8.90;50.90
66190;DHT22;52992;52.084;5.412;2023-04-06T04:28:05;8.90;49.30
66190;DHT22;52992;52.084;5.412;2023-04-06T04:30:33;8.90;49.40
66190;DHT22;52992;52.084;5.412;2023-04-06T04:33:00;8.90;48.90
66190;DHT22;52992;52.084;5.412;2023-04-06T04:35:27;9.00;48.60
66190;DHT22;52992;52.084;5.412;2023-04-06T04:37:55;9.00;47.70
66190;DHT22;52992;52.084;5.412;2023-04-06T04:40:22;9.00;48.00
66190;DHT22;52992;52.084;5.412;2023-04-06T04:42:55;9.00;47.90
66190;DHT22;52992;52.084;5.412;2023-04-06T04:45:27;9.00;47.30
66190;DHT22;52992;52.084;5.412;2023-04-06T04:47:55;9.10;47.70
66190;DHT22;52992;52.084;5.412;2023-04-06T04:50:26;9.10;48.10
66190;DHT22;52992;52.084;5.412;2023-04-06T04:52:56;9.00;48.50
66190;DHT22;52992;52.084;5.412;2023-04-06T04:55:25;9.00;48.70
66190;DHT22;52992;52.084;5.412;2023-04-06T04:57:55;9.10;49.00
66190;DHT22;52992;52.084;5.412;2023-04-06T05:00:33;9.10;49.20
66190;DHT22;52992;52.084;5.412;2023-04-06T05:03:00;9.10;49.30
66190;DHT22;52992;52.084;5.412;2023-04-06T05:05:30;9.20;49.40
66190;DHT22;52992;52.084;5.412;2023-04-06T05:07:57;9.30;49.20
66190;DHT22;52992;52.084;5.412;2023-04-06T05:10:35;9.30;48.80
66190;DHT22;52992;52.084;5.412;2023-04-06T05:13:02;9.40;48.60
66190;DHT22;52992;52.084;5.412;2023-04-06T05:15:29;9.40;48.40
66190;DHT22;52992;52.084;5.412;2023-04-06T05:18:04;9.40;48.10
66190;DHT22;52992;52.084;5.412;2023-04-06T05:20:33;9.40;47.80
66190;DHT22;52992;52.084;5.412;2023-04-06T05:23:01;9.50;47.70
66190;DHT22;52992;52.084;5.412;2023-04-06T05:25:29;9.50;47.40
66190;DHT22;52992;52.084;5.412;2023-04-06T05:28:03;9.50;47.10
66190;DHT22;52992;52.084;5.412;2023-04-06T05:30:34;9.60;47.10
66190;DHT22;52992;52.084;5.412;2023-04-06T05:33:02;9.60;47.10
66190;DHT22;52992;52.084;5.412;2023-04-06T05:35:42;9.70;47.10
66190;DHT22;52992;52.084;5.412;2023-04-06T05:38:11;9.80;46.70
66190;DHT22;52992;52.084;5.412;2023-04-06T05:40:38;9.80;46.50
66190;DHT22;52992;52.084;5.412;2023-04-06T05:43:11;9.90;46.40
66190;DHT22;52992;52.084;5.412;2023-04-06T05:45:44;10.00;46.10
66190;DHT22;52992;52.084;5.412;2023-04-06T05:48:11;10.10;46.00
66190;DHT22;52992;52.084;5.412;2023-04-06T05:50:38;10.10;45.70
66190;DHT22;52992;52.084;5.412;2023-04-06T05:53:05;10.10;45.20
66190;DHT22;52992;52.084;5.412;2023-04-06T05:55:38;10.20;45.30
66190;DHT22;52992;52.084;5.412;2023-04-06T05:58:14;10.20;45.10
66190;DHT22;52992;52.084;5.412;2023-04-06T06:00:41;10.20;44.70
66190;DHT22;52992;52.084;5.412;2023-04-06T06:03:10;10.30;44.00
66190;DHT22;52992;52.084;5.412;2023-04-06T06:05:39;10.30;44.40
66190;DHT22;52992;52.084;5.412;2023-04-06T06:08:14;10.30;44.20
66190;DHT22;52992;52.084;5.412;2023-04-06T06:10:41;10.40;43.80
66190;DHT22;52992;52.084;5.412;2023-04-06T06:13:11;10.40;43.60
66190;DHT22;52992;52.084;5.412;2023-04-06T06:15:38;10.40;43.80
66190;DHT22;52992;52.084;5.412;2023-04-06T06:18:05;10.50;43.90
66190;DHT22;52992;52.084;5.412;2023-04-06T06:20:32;10.50;44.00
66190;DHT22;52992;52.084;5.412;2023-04-06T06:23:02;10.50;43.90
66190;DHT22;52992;52.084;5.412;2023-04-06T06:25:30;10.50;43.50
66190;DHT22;52992;52.084;5.412;2023-04-06T06:27:58;10.60;43.80
66190;DHT22;52992;52.084;5.412;2023-04-06T06:30:27;10.60;44.00
66190;DHT22;52992;52.084;5.412;2023-04-06T06:32:54;10.70;43.80
66190;DHT22;52992;52.084;5.412;2023-04-06T06:35:21;10.70;43.80
66190;DHT22;52992;52.084;5.412;2023-04-06T06:37:49;10.80;43.40
66190;DHT22;52992;52.084;5.412;2023-04-06T06:40:19;10.90;43.60
66190;DHT22;52992;52.084;5.412;2023-04-06T06:42:50;11.00;43.20
66190;DHT22;52992;52.084;5.412;2023-04-06T06:45:32;11.20;42.80
66190;DHT22;52992;52.084;5.412;2023-04-06T06:47:59;11.40;42.60
66190;DHT22;52992;52.084;5.412;2023-04-06T06:50:26;11.70;41.50
66190;DHT22;52992;52.084;5.412;2023-04-06T06:52:53;11.80;40.60
66190;DHT22;52992;52.084;5.412;2023-04-06T06:55:21;11.90;40.50
66190;DHT22;52992;52.084;5.412;2023-04-06T06:57:48;11.90;40.50
66190;DHT22;52992;52.084;5.412;2023-04-06T07:00:15;12.00;40.40
66190;DHT22;52992;52.084;5.412;2023-04-06T07:02:45;12.00;39.70
66190;DHT22;52992;52.084;5.412;2023-04-06T07:05:12;11.90;39.80
66190;DHT22;52992;52.084;5.412;2023-04-06T07:07:55;12.00;40.70
66190;DHT22;52992;52.084;5.412;2023-04-06T07:10:22;12.00;40.10
66190;DHT22;52992;52.084;5.412;2023-04-06T07:12:49;11.90;39.60
66190;DHT22;52992;52.084;5.412;2023-04-06T07:15:16;11.80;39.80
66190;DHT22;52992;52.084;5.412;2023-04-06T07:17:44;11.70;40.00
66190;DHT22;52992;52.084;5.412;2023-04-06T07:20:14;11.60;40.30
66190;DHT22;52992;52.084;5.412;2023-04-06T07:22:43;11.60;40.40
66190;DHT22;52992;52.084;5.412;2023-04-06T07:25:11;11.60;40.50
66190;DHT22;52992;52.084;5.412;2023-04-06T07:27:40;11.60;40.40
66190;DHT22;52992;52.084;5.412;2023-04-06T07:30:08;11.50;40.50
66190;DHT22;52992;52.084;5.412;2023-04-06T07:32:35;11.60;40.10
66190;DHT22;52992;52.084;5.412;2023-04-06T07:35:03;11.60;40.70
66190;DHT22;52992;52.084;5.412;2023-04-06T07:37:30;11.60;40.50
66190;DHT22;52992;52.084;5.412;2023-04-06T07:39:57;11.70;40.50
66190;DHT22;52992;52.084;5.412;2023-04-06T07:42:24;11.80;40.50
66190;DHT22;52992;52.084;5.412;2023-04-06T07:44:51;11.80;40.40
66190;DHT22;52992;52.084;5.412;2023-04-06T07:47:19;11.80;40.30
66190;DHT22;52992;52.084;5.412;2023-04-06T07:49:46;11.90;40.40
66190;DHT22;52992;52.084;5.412;2023-04-06T07:52:13;11.90;39.60
66190;DHT22;52992;52.084;5.412;2023-04-06T07:54:41;11.90;39.60
66190;DHT22;52992;52.084;5.412;2023-04-06T07:57:08;11.90;39.70
66190;DHT22;52992;52.084;5.412;2023-04-06T07:59:35;12.00;39.80
66190;DHT22;52992;52.084;5.412;2023-04-06T08:02:02;12.20;39.90
66190;DHT22;52992;52.084;5.412;2023-04-06T08:04:29;12.40;39.70
66190;DHT22;52992;52.084;5.412;2023-04-06T08:06:56;12.50;39.60
66190;DHT22;52992;52.084;5.412;2023-04-06T08:09:23;12.70;39.60
66190;DHT22;52992;52.084;5.412;2023-04-06T08:11:50;12.80;39.30
66190;DHT22;52992;52.084;5.412;2023-04-06T08:14:17;12.90;38.60
66190;DHT22;52992;52.084;5.412;2023-04-06T08:16:44;12.90;38.90
66190;DHT22;52992;52.084;5.412;2023-04-06T08:19:11;13.00;38.70
66190;DHT22;52992;52.084;5.412;2023-04-06T08:21:38;13.10;38.40
66190;DHT22;52992;52.084;5.412;2023-04-06T08:24:06;13.10;38.30
66190;DHT22;52992;52.084;5.412;2023-04-06T08:26:34;13.30;38.30
66190;DHT22;52992;52.084;5.412;2023-04-06T08:29:00;13.40;37.80
66190;DHT22;52992;52.084;5.412;2023-04-06T08:31:27;13.50;37.80
66190;DHT22;52992;52.084;5.412;2023-04-06T08:33:54;13.60;37.00
66190;DHT22;52992;52.084;5.412;2023-04-06T08:36:22;13.70;37.00
66190;DHT22;52992;52.084;5.412;2023-04-06T08:38:49;13.80;37.00
66190;DHT22;52992;52.084;5.412;2023-04-06T08:41:17;14.00;37.20
66190;DHT22;52992;52.084;5.412;2023-04-06T08:43:49;14.10;37.30
66190;DHT22;52992;52.084;5.412;2023-04-06T08:46:17;14.20;36.90
66190;DHT22;52992;52.084;5.412;2023-04-06T08:48:45;14.30;37.10
66190;DHT22;52992;52.084;5.412;2023-04-06T08:51:15;14.30;36.80
66190;DHT22;52992;52.084;5.412;2023-04-06T08:53:42;14.30;37.20
66190;DHT22;52992;52.084;5.412;2023-04-06T08:56:10;14.50;37.20
66190;DHT22;52992;52.084;5.412;2023-04-06T08:58:39;14.70;36.50
66190;DHT22;52992;52.084;5.412;2023-04-06T09:01:08;14.70;36.80
66190;DHT22;52992;52.084;5.412;2023-04-06T09:03:40;14.80;36.80
66190;DHT22;52992;52.084;5.412;2023-04-06T09:06:08;15.00;36.80
66190;DHT22;52992;52.084;5.412;2023-04-06T09:08:38;15.10;36.70
66190;DHT22;52992;52.084;5.412;2023-04-06T09:11:05;15.10;36.20
66190;DHT22;52992;52.084;5.412;2023-04-06T09:13:44;15.10;36.10
66190;DHT22;52992;52.084;5.412;2023-04-06T09:16:12;15.10;35.40
66190;DHT22;52992;52.084;5.412;2023-04-06T09:18:39;15.10;36.10
66190;DHT22;52992;52.084;5.412;2023-04-06T09:21:08;15.20;36.00
66190;DHT22;52992;52.084;5.412;2023-04-06T09:23:35;15.20;36.60
66190;DHT22;52992;52.084;5.412;2023-04-06T09:28:54;15.40;35.70
66190;DHT22;52992;52.084;5.412;2023-04-06T09:31:25;15.40;35.40
66190;DHT22;52992;52.084;5.412;2023-04-06T09:33:53;15.40;35.80
66190;DHT22;52992;52.084;5.412;2023-04-06T09:36:33;15.50;36.40
66190;DHT22;52992;52.084;5.412;2023-04-06T09:39:04;15.60;36.10
66190;DHT22;52992;52.084;5.412;2023-04-06T09:41:35;15.70;36.50
66190;DHT22;52992;52.084;5.412;2023-04-06T09:44:12;15.70;36.30
66190;DHT22;52992;52.084;5.412;2023-04-06T09:46:44;15.80;36.60
66190;DHT22;52992;52.084;5.412;2023-04-06T09:49:27;15.80;36.40
66190;DHT22;52992;52.084;5.412;2023-04-06T09:51:59;16.00;36.80
66190;DHT22;52992;52.084;5.412;2023-04-06T09:54:28;16.20;37.50
66190;DHT22;52992;52.084;5.412;2023-04-06T09:57:22;16.20;37.60
66190;DHT22;52992;52.084;5.412;2023-04-06T10:05:52;16.60;39.30
66190;DHT22;52992;52.084;5.412;2023-04-06T10:08:19;16.80;39.10
66190;DHT22;52992;52.084;5.412;2023-04-06T10:10:50;16.80;39.20
66190;DHT22;52992;52.084;5.412;2023-04-06T10:13:19;16.90;38.60
66190;DHT22;52992;52.084;5.412;2023-04-06T10:15:46;16.90;38.50
66190;DHT22;52992;52.084;5.412;2023-04-06T10:18:14;16.90;38.00
66190;DHT22;52992;52.084;5.412;2023-04-06T10:21:01;16.90;37.80
66190;DHT22;52992;52.084;5.412;2023-04-06T10:23:37;16.90;38.00
66190;DHT22;52992;52.084;5.412;2023-04-06T10:26:13;17.00;38.20
66190;DHT22;52992;52.084;5.412;2023-04-06T10:28:42;17.00;38.00
66190;DHT22;52992;52.084;5.412;2023-04-06T10:31:09;17.00;38.40
66190;DHT22;52992;52.084;5.412;2023-04-06T10:33:36;16.90;38.50
66190;DHT22;52992;52.084;5.412;2023-04-06T10:36:23;16.70;39.00
66190;DHT22;52992;52.084;5.412;2023-04-06T10:39:01;16.50;39.80
66190;DHT22;52992;52.084;5.412;2023-04-06T10:41:42;16.20;41.40
66190;DHT22;52992;52.084;5.412;2023-04-06T10:44:21;16.00;43.00
66190;DHT22;52992;52.084;5.412;2023-04-06T10:46:59;15.90;44.50
66190;DHT22;52992;52.084;5.412;2023-04-06T10:49:29;15.70;45.20
66190;DHT22;52992;52.084;5.412;2023-04-06T10:51:56;15.60;45.80
66190;DHT22;52992;52.084;5.412;2023-04-06T10:54:25;15.50;46.50
66190;DHT22;52992;52.084;5.412;2023-04-06T10:56:52;15.40;47.10
66190;DHT22;52992;52.084;5.412;2023-04-06T10:59:20;15.30;47.70
66190;DHT22;52992;52.084;5.412;2023-04-06T11:01:48;15.10;48.30
66190;DHT22;52992;52.084;5.412;2023-04-06T11:04:19;15.00;48.90
66190;DHT22;52992;52.084;5.412;2023-04-06T11:06:48;14.90;49.80
66190;DHT22;52992;52.084;5.412;2023-04-06T11:09:28;14.90;50.40
66190;DHT22;52992;52.084;5.412;2023-04-06T11:11:56;14.80;51.10
66190;DHT22;52992;52.084;5.412;2023-04-06T11:14:23;14.60;51.40
66190;DHT22;52992;52.084;5.412;2023-04-06T11:16:50;14.50;51.80
66190;DHT22;52992;52.084;5.412;2023-04-06T11:19:18;14.40;52.10
66190;DHT22;52992;52.084;5.412;2023-04-06T11:21:49;14.30;52.90
66190;DHT22;52992;52.084;5.412;2023-04-06T11:24:20;14.20;53.90
66190;DHT22;52992;52.084;5.412;2023-04-06T11:26:58;14.20;53.90
66190;DHT22;52992;52.084;5.412;2023-04-06T11:29:29;14.40;54.30
66190;DHT22;52992;52.084;5.412;2023-04-06T11:32:01;14.50;54.50
66190;DHT22;52992;52.084;5.412;2023-04-06T11:34:30;14.30;54.60
66190;DHT22;52992;52.084;5.412;2023-04-06T11:37:02;14.30;55.30
66190;DHT22;52992;52.084;5.412;2023-04-06T11:39:38;14.20;55.50
66190;DHT22;52992;52.084;5.412;2023-04-06T11:42:06;14.10;57.10
66190;DHT22;52992;52.084;5.412;2023-04-06T11:44:45;14.10;56.40
66190;DHT22;52992;52.084;5.412;2023-04-06T11:47:16;14.00;56.60
66190;DHT22;52992;52.084;5.412;2023-04-06T11:49:44;13.90;56.70
66190;DHT22;52992;52.084;5.412;2023-04-06T11:52:25;13.90;57.30
66190;DHT22;52992;52.084;5.412;2023-04-06T11:54:53;13.90;57.30
66190;DHT22;52992;52.084;5.412;2023-04-06T11:57:21;14.00;56.50
66190;DHT22;52992;52.084;5.412;2023-04-06T11:59:52;14.00;57.80
66190;DHT22;52992;52.084;5.412;2023-04-06T12:02:19;14.00;57.30
66190;DHT22;52992;52.084;5.412;2023-04-06T12:04:46;14.00;57.80
66190;DHT22;52992;52.084;5.412;2023-04-06T12:07:13;14.00;58.00
66190;DHT22;52992;52.084;5.412;2023-04-06T12:09:40;13.90;57.50
66190;DHT22;52992;52.084;5.412;2023-04-06T12:12:07;13.80;58.50
66190;DHT22;52992;52.084;5.412;2023-04-06T12:14:34;13.60;59.20
66190;DHT22;52992;52.084;5.412;2023-04-06T12:17:01;13.70;59.20
66190;DHT22;52992;52.084;5.412;2023-04-06T12:19:28;13.60;58.90
66190;DHT22;52992;52.084;5.412;2023-04-06T12:21:57;13.40;59.60
66190;DHT22;52992;52.084;5.412;2023-04-06T12:24:24;13.30;59.90
66190;DHT22;52992;52.084;5.412;2023-04-06T12:26:53;13.30;60.30
66190;DHT22;52992;52.084;5.412;2023-04-06T12:29:34;13.30;60.30
66190;DHT22;52992;52.084;5.412;2023-04-06T12:32:01;13.30;60.90
66190;DHT22;52992;52.084;5.412;2023-04-06T12:34:28;13.20;61.00
66190;DHT22;52992;52.084;5.412;2023-04-06T12:36:55;13.10;61.20
66190;DHT22;52992;52.084;5.412;2023-04-06T12:39:23;13.20;61.30
66190;DHT22;52992;52.084;5.412;2023-04-06T12:41:50;13.10;61.20
66190;DHT22;52992;52.084;5.412;2023-04-06T12:44:17;13.20;61.80
66190;DHT22;52992;52.084;5.412;2023-04-06T12:46:44;13.10;61.40
66190;DHT22;52992;52.084;5.412;2023-04-06T12:49:11;13.10;61.60
66190;DHT22;52992;52.084;5.412;2023-04-06T12:51:38;13.00;61.40
66190;DHT22;52992;52.084;5.412;2023-04-06T12:54:05;13.10;61.90
66190;DHT22;52992;52.084;5.412;2023-04-06T12:56:33;13.10;61.60
66190;DHT22;52992;52.084;5.412;2023-04-06T12:59:00;13.30;62.30
66190;DHT22;52992;52.084;5.412;2023-04-06T13:01:27;13.50;61.60
66190;DHT22;52992;52.084;5.412;2023-04-06T13:03:56;13.40;61.00
66190;DHT22;52992;52.084;5.412;2023-04-06T13:06:23;13.30;61.70
66190;DHT22;52992;52.084;5.412;2023-04-06T13:08:54;13.30;61.00
66190;DHT22;52992;52.084;5.412;2023-04-06T13:11:22;13.20;62.00
66190;DHT22;52992;52.084;5.412;2023-04-06T13:13:52;13.10;62.10
66190;DHT22;52992;52.084;5.412;2023-04-06T13:16:19;13.00;62.10
66190;DHT22;52992;52.084;5.412;2023-04-06T13:18:47;12.90;62.10
66190;DHT22;52992;52.084;5.412;2023-04-06T13:21:15;12.80;61.80
66190;DHT22;52992;52.084;5.412;2023-04-06T13:23:43;12.70;62.30
66190;DHT22;52992;52.084;5.412;2023-04-06T13:26:10;12.70;62.50
66190;DHT22;52992;52.084;5.412;2023-04-06T13:28:39;12.70;63.00
66190;DHT22;52992;52.084;5.412;2023-04-06T13:31:07;12.70;62.50
66190;DHT22;52992;52.084;5.412;2023-04-06T13:33:35;12.60;62.80
66190;DHT22;52992;52.084;5.412;2023-04-06T13:36:02;12.70;63.90
66190;DHT22;52992;52.084;5.412;2023-04-06T13:38:30;12.60;63.70
66190;DHT22;52992;52.084;5.412;2023-04-06T13:40:57;12.60;64.30
66190;DHT22;52992;52.084;5.412;2023-04-06T13:43:24;12.60;64.70
66190;DHT22;52992;52.084;5.412;2023-04-06T13:45:54;12.60;65.20
66190;DHT22;52992;52.084;5.412;2023-04-06T13:48:22;12.50;65.30
66190;DHT22;52992;52.084;5.412;2023-04-06T13:50:49;12.40;66.30
66190;DHT22;52992;52.084;5.412;2023-04-06T13:53:16;12.20;67.00
66190;DHT22;52992;52.084;5.412;2023-04-06T13:55:43;12.10;67.40
66190;DHT22;52992;52.084;5.412;2023-04-06T13:58:11;12.10;67.60
66190;DHT22;52992;52.084;5.412;2023-04-06T14:00:38;12.10;68.20
66190;DHT22;52992;52.084;5.412;2023-04-06T14:03:05;12.20;68.00
66190;DHT22;52992;52.084;5.412;2023-04-06T14:05:33;12.20;68.80
66190;DHT22;52992;52.084;5.412;2023-04-06T14:08:00;12.10;69.40
66190;DHT22;52992;52.084;5.412;2023-04-06T14:10:27;12.10;70.00
66190;DHT22;52992;52.084;5.412;2023-04-06T14:12:54;12.00;70.40
66190;DHT22;52992;52.084;5.412;2023-04-06T14:15:22;12.00;71.10
66190;DHT22;52992;52.084;5.412;2023-04-06T14:17:50;12.00;71.90
66190;DHT22;52992;52.084;5.412;2023-04-06T14:20:18;12.00;72.30
66190;DHT22;52992;52.084;5.412;2023-04-06T14:22:45;12.00;72.80
66190;DHT22;52992;52.084;5.412;2023-04-06T14:25:13;12.00;72.90
66190;DHT22;52992;52.084;5.412;2023-04-06T14:27:40;12.00;73.50
66190;DHT22;52992;52.084;5.412;2023-04-06T14:30:08;12.10;73.20
66190;DHT22;52992;52.084;5.412;2023-04-06T14:32:35;12.10;73.20
66190;DHT22;52992;52.084;5.412;2023-04-06T14:35:06;12.00;73.20
66190;DHT22;52992;52.084;5.412;2023-04-06T14:37:34;11.90;74.50
66190;DHT22;52992;52.084;5.412;2023-04-06T14:40:02;12.00;73.60
66190;DHT22;52992;52.084;5.412;2023-04-06T14:42:29;12.00;74.60
66190;DHT22;52992;52.084;5.412;2023-04-06T14:44:56;11.90;74.90
66190;DHT22;52992;52.084;5.412;2023-04-06T14:47:23;11.90;74.50
66190;DHT22;52992;52.084;5.412;2023-04-06T14:49:51;11.90;75.10
66190;DHT22;52992;52.084;5.412;2023-04-06T14:52:18;11.70;75.10
66190;DHT22;52992;52.084;5.412;2023-04-06T14:54:45;11.70;75.40
66190;DHT22;52992;52.084;5.412;2023-04-06T14:57:12;11.60;75.80
66190;DHT22;52992;52.084;5.412;2023-04-06T14:59:38;11.50;76.20
66190;DHT22;52992;52.084;5.412;2023-04-06T15:02:06;11.50;76.40
66190;DHT22;52992;52.084;5.412;2023-04-06T15:04:36;11.40;77.10
66190;DHT22;52992;52.084;5.412;2023-04-06T15:07:03;11.40;77.40
66190;DHT22;52992;52.084;5.412;2023-04-06T15:09:30;11.50;77.10
66190;DHT22;52992;52.084;5.412;2023-04-06T15:11:58;11.60;77.40
66190;DHT22;52992;52.084;5.412;2023-04-06T15:14:24;11.60;77.10
66190;DHT22;52992;52.084;5.412;2023-04-06T15:16:51;11.60;76.80
66190;DHT22;52992;52.084;5.412;2023-04-06T15:19:18;11.60;77.00
66190;DHT22;52992;52.084;5.412;2023-04-06T15:21:45;11.60;77.10
66190;DHT22;52992;52.084;5.412;2023-04-06T15:24:12;11.70;77.00
66190;DHT22;52992;52.084;5.412;2023-04-06T15:26:39;11.60;77.70
66190;DHT22;52992;52.084;5.412;2023-04-06T15:29:06;11.60;77.40
66190;DHT22;52992;52.084;5.412;2023-04-06T15:31:33;11.60;77.50
66190;DHT22;52992;52.084;5.412;2023-04-06T15:34:04;11.70;77.40
66190;DHT22;52992;52.084;5.412;2023-04-06T15:36:32;11.70;77.20
66190;DHT22;52992;52.084;5.412;2023-04-06T15:39:00;11.70;77.70
66190;DHT22;52992;52.084;5.412;2023-04-06T15:41:27;11.80;77.70
66190;DHT22;52992;52.084;5.412;2023-04-06T15:43:54;11.70;77.60
66190;DHT22;52992;52.084;5.412;2023-04-06T15:46:22;11.70;77.70
66190;DHT22;52992;52.084;5.412;2023-04-06T15:48:49;11.80;77.50
66190;DHT22;52992;52.084;5.412;2023-04-06T15:51:16;11.80;77.60
66190;DHT22;52992;52.084;5.412;2023-04-06T15:53:44;11.70;77.60
66190;DHT22;52992;52.084;5.412;2023-04-06T15:56:11;11.70;77.80
66190;DHT22;52992;52.084;5.412;2023-04-06T15:58:40;11.60;77.90